Airfield :
LOGIN :

Register | Disclaimer

   EN    FR    IT 

 










Legend :    VFR   Marginal VFR   IFR   Intensive IFR   Very Intensive IFR
Visi :
Ceiling :
>= 8 km
>= 3000ft
5 to 8 km
1000 to 3000 ft
1500m to 5 km
500 to 1000 ft
800 to 1500m
200 to 500 ft
< 800m
< 200 ft
Symbols :   Thunderstorms  Fog  Heavy snow  Heavy precipitations  Wind > 20 kt
SIGMETs :     Misc.  Thunderstorms  Icing  Turbulence  Mountain Waves  Volcanic Ashes






- Airport Elevation : 587 ft
- IATA code : XCR


LFOK - Chalons Vatry

CURRENT METAR :
  • 270830Z AUTO 16024KT 3200 SN BR OVC006 01/01 Q0998 TEMPO 1200 SN OVC003 BECMG 18020G30KT

EXPIRED METARs :
  • 270800Z AUTO 17021KT 5000 -SNRA BR OVC007 02/02 Q1000 TEMPO 1200 SN OVC003 BECMG 18020G30KT
  • 270730Z AUTO 17020KT 5000 -SNRA BR BKN010 BKN014 OVC019 02/02 Q1001 TEMPO 1200 SN OVC003 BECMG 18020G30KT
  • 270700Z AUTO 17017KT 8000 -RA FEW013 BKN020 BKN033 02/02 Q1002 TEMPO 1200 SN OVC003 BECMG 18020G30KT
  • 270630Z AUTO 17015KT 9999 -RA FEW022 SCT033 BKN045 02/01 Q1003 TEMPO 1200 SN OVC003 BECMG 18020G30KT
  • 270600Z AUTO 17015KT 9999 -RA SCT033 BKN039 BKN046 02/01 Q1004 BECMG 18020G30KT 4000 RA OVC006

TAF TAF LFOK
Valid from the 27 at 06:00 until the 28 at 06:00 UTC


270500Z 2706/2806 17015KT 9999 RA OVC035
BECMG 2706/2708 18020G30KT 4000 SN OVC007
TEMPO 2708/2711 1200 SN OVC003
BECMG 2713/2715 30020G40KT 9999 NSW BKN025
PROB30
TEMPO 2715/2716 30025G50KT
BECMG 2716/2718 30020G30KT
BECMG 2718/2720 27012KT
BECMG 2804/2806 20010KT



MET'MAP, your aeronautical weather chart ! - Copyright ORBIFLY December 2007 - Disclaimer

ORBIFLY MET'MAP TEAM :

Programming & Development : Alexandra Zaïnal
Concept & original design : Baudouin d'Aumeries
Assistance for programming : Marc-Olivier Méhu
Technical & hardware support : Manuel Goepfert

Contact : metmap@orbifly.com




SOURCES & CREDITS :

   NOAA